sensor_id;sensor_type;location;lat;lon;timestamp;P1;durP1;ratioP1;P2;durP2;ratioP2
32321;SDS011;61553;48.994;8.940;2023-06-04T00:00:04;5.80;;;3.05;;
32321;SDS011;61553;48.994;8.940;2023-06-04T00:02:31;6.97;;;3.22;;
32321;SDS011;61553;48.994;8.940;2023-06-04T00:04:57;5.65;;;3.00;;
32321;SDS011;61553;48.994;8.940;2023-06-04T00:07:23;7.13;;;3.35;;
32321;SDS011;61553;48.994;8.940;2023-06-04T00:09:49;7.45;;;2.80;;
32321;SDS011;61553;48.994;8.940;2023-06-04T00:12:14;7.60;;;3.08;;
32321;SDS011;61553;48.994;8.940;2023-06-04T00:14:40;7.43;;;2.85;;
32321;SDS011;61553;48.994;8.940;2023-06-04T00:17:07;8.63;;;3.50;;
32321;SDS011;61553;48.994;8.940;2023-06-04T00:19:33;6.50;;;2.90;;
32321;SDS011;61553;48.994;8.940;2023-06-04T00:21:59;7.18;;;2.80;;
32321;SDS011;61553;48.994;8.940;2023-06-04T00:24:24;7.78;;;3.30;;
32321;SDS011;61553;48.994;8.940;2023-06-04T00:26:50;4.80;;;2.45;;
32321;SDS011;61553;48.994;8.940;2023-06-04T00:29:16;7.20;;;3.05;;
32321;SDS011;61553;48.994;8.940;2023-06-04T00:31:41;9.95;;;2.85;;
32321;SDS011;61553;48.994;8.940;2023-06-04T00:34:07;8.82;;;2.55;;
32321;SDS011;61553;48.994;8.940;2023-06-04T00:36:33;7.20;;;2.50;;
32321;SDS011;61553;48.994;8.940;2023-06-04T00:38:58;7.03;;;2.78;;
32321;SDS011;61553;48.994;8.940;2023-06-04T00:41:24;6.03;;;2.55;;
32321;SDS011;61553;48.994;8.940;2023-06-04T00:43:50;7.55;;;2.30;;
32321;SDS011;61553;48.994;8.940;2023-06-04T00:46:29;6.20;;;2.55;;
32321;SDS011;61553;48.994;8.940;2023-06-04T00:48:56;5.85;;;2.22;;
32321;SDS011;61553;48.994;8.940;2023-06-04T00:51:22;5.45;;;2.50;;
32321;SDS011;61553;48.994;8.940;2023-06-04T00:53:48;8.70;;;2.78;;
32321;SDS011;61553;48.994;8.940;2023-06-04T00:56:15;6.35;;;2.88;;
32321;SDS011;61553;48.994;8.940;2023-06-04T00:58:40;4.18;;;2.40;;
32321;SDS011;61553;48.994;8.940;2023-06-04T01:01:10;6.35;;;2.75;;
32321;SDS011;61553;48.994;8.940;2023-06-04T01:03:56;4.28;;;2.30;;
32321;SDS011;61553;48.994;8.940;2023-06-04T01:06:32;7.30;;;2.67;;
32321;SDS011;61553;48.994;8.940;2023-06-04T01:09:04;6.18;;;2.42;;
32321;SDS011;61553;48.994;8.940;2023-06-04T01:11:40;8.75;;;3.20;;
32321;SDS011;61553;48.994;8.940;2023-06-04T01:14:07;5.65;;;2.35;;
32321;SDS011;61553;48.994;8.940;2023-06-04T01:16:47;4.95;;;2.28;;
32321;SDS011;61553;48.994;8.940;2023-06-04T01:22:27;5.28;;;2.30;;
32321;SDS011;61553;48.994;8.940;2023-06-04T01:25:54;5.70;;;2.30;;
32321;SDS011;61553;48.994;8.940;2023-06-04T01:28:05;8.30;;;2.53;;
32321;SDS011;61553;48.994;8.940;2023-06-04T01:30:34;9.25;;;2.63;;
32321;SDS011;61553;48.994;8.940;2023-06-04T01:33:02;5.47;;;2.42;;
32321;SDS011;61553;48.994;8.940;2023-06-04T01:35:28;5.13;;;2.50;;
32321;SDS011;61553;48.994;8.940;2023-06-04T01:37:57;5.78;;;2.45;;
32321;SDS011;61553;48.994;8.940;2023-06-04T01:40:23;6.13;;;2.30;;
32321;SDS011;61553;48.994;8.940;2023-06-04T01:42:50;5.35;;;2.42;;
32321;SDS011;61553;48.994;8.940;2023-06-04T01:45:16;5.97;;;2.10;;
32321;SDS011;61553;48.994;8.940;2023-06-04T01:47:42;5.03;;;2.47;;
32321;SDS011;61553;48.994;8.940;2023-06-04T01:50:08;6.35;;;2.72;;
32321;SDS011;61553;48.994;8.940;2023-06-04T01:52:34;6.68;;;2.10;;
32321;SDS011;61553;48.994;8.940;2023-06-04T01:55:02;4.47;;;2.00;;
32321;SDS011;61553;48.994;8.940;2023-06-04T01:57:28;8.32;;;2.55;;
32321;SDS011;61553;48.994;8.940;2023-06-04T01:59:53;6.38;;;2.40;;
32321;SDS011;61553;48.994;8.940;2023-06-04T02:02:20;4.70;;;1.90;;
32321;SDS011;61553;48.994;8.940;2023-06-04T02:04:45;4.75;;;2.22;;
32321;SDS011;61553;48.994;8.940;2023-06-04T02:07:11;5.32;;;1.80;;
32321;SDS011;61553;48.994;8.940;2023-06-04T02:09:42;4.72;;;2.13;;
32321;SDS011;61553;48.994;8.940;2023-06-04T02:12:08;4.80;;;1.85;;
32321;SDS011;61553;48.994;8.940;2023-06-04T02:14:34;7.57;;;2.50;;
32321;SDS011;61553;48.994;8.940;2023-06-04T02:17:00;4.93;;;2.15;;
32321;SDS011;61553;48.994;8.940;2023-06-04T02:19:26;5.88;;;2.20;;
32321;SDS011;61553;48.994;8.940;2023-06-04T02:21:54;4.78;;;1.92;;
32321;SDS011;61553;48.994;8.940;2023-06-04T02:24:21;5.32;;;2.00;;
32321;SDS011;61553;48.994;8.940;2023-06-04T02:26:46;5.60;;;2.08;;
32321;SDS011;61553;48.994;8.940;2023-06-04T02:29:12;6.80;;;2.28;;
32321;SDS011;61553;48.994;8.940;2023-06-04T02:31:38;7.40;;;2.05;;
32321;SDS011;61553;48.994;8.940;2023-06-04T02:34:03;5.53;;;1.95;;
32321;SDS011;61553;48.994;8.940;2023-06-04T02:36:29;4.85;;;1.80;;
32321;SDS011;61553;48.994;8.940;2023-06-04T02:38:55;5.38;;;1.92;;
32321;SDS011;61553;48.994;8.940;2023-06-04T02:41:21;6.25;;;1.60;;
32321;SDS011;61553;48.994;8.940;2023-06-04T02:43:48;4.97;;;1.98;;
32321;SDS011;61553;48.994;8.940;2023-06-04T02:46:13;5.38;;;2.10;;
32321;SDS011;61553;48.994;8.940;2023-06-04T02:48:39;6.15;;;2.20;;
32321;SDS011;61553;48.994;8.940;2023-06-04T02:51:05;7.40;;;1.92;;
32321;SDS011;61553;48.994;8.940;2023-06-04T02:53:30;5.90;;;1.73;;
32321;SDS011;61553;48.994;8.940;2023-06-04T02:55:56;6.30;;;1.88;;
32321;SDS011;61553;48.994;8.940;2023-06-04T02:58:22;4.30;;;1.80;;
32321;SDS011;61553;48.994;8.940;2023-06-04T03:00:52;4.70;;;1.73;;
32321;SDS011;61553;48.994;8.940;2023-06-04T03:03:18;4.10;;;1.75;;
32321;SDS011;61553;48.994;8.940;2023-06-04T03:05:43;4.07;;;1.95;;
32321;SDS011;61553;48.994;8.940;2023-06-04T03:08:09;8.93;;;2.67;;
32321;SDS011;61553;48.994;8.940;2023-06-04T03:10:35;10.13;;;2.30;;
32321;SDS011;61553;48.994;8.940;2023-06-04T03:13:00;6.70;;;1.90;;
32321;SDS011;61553;48.994;8.940;2023-06-04T03:15:26;3.22;;;1.58;;
32321;SDS011;61553;48.994;8.940;2023-06-04T03:17:52;5.25;;;1.95;;
32321;SDS011;61553;48.994;8.940;2023-06-04T03:20:17;8.18;;;1.92;;
32321;SDS011;61553;48.994;8.940;2023-06-04T03:22:43;3.65;;;1.70;;
32321;SDS011;61553;48.994;8.940;2023-06-04T03:25:09;4.50;;;1.85;;
32321;SDS011;61553;48.994;8.940;2023-06-04T03:27:34;5.60;;;1.85;;
32321;SDS011;61553;48.994;8.940;2023-06-04T03:30:00;3.55;;;1.65;;
32321;SDS011;61553;48.994;8.940;2023-06-04T03:32:26;4.57;;;2.00;;
32321;SDS011;61553;48.994;8.940;2023-06-04T03:34:52;6.63;;;1.90;;
32321;SDS011;61553;48.994;8.940;2023-06-04T03:37:18;4.20;;;2.10;;
32321;SDS011;61553;48.994;8.940;2023-06-04T03:39:43;4.22;;;2.25;;
32321;SDS011;61553;48.994;8.940;2023-06-04T03:42:09;4.43;;;1.77;;
32321;SDS011;61553;48.994;8.940;2023-06-04T03:44:35;3.80;;;1.80;;
32321;SDS011;61553;48.994;8.940;2023-06-04T03:47:00;6.75;;;2.60;;
32321;SDS011;61553;48.994;8.940;2023-06-04T03:49:26;4.97;;;1.98;;
32321;SDS011;61553;48.994;8.940;2023-06-04T03:51:52;4.93;;;1.95;;
32321;SDS011;61553;48.994;8.940;2023-06-04T03:54:17;5.57;;;2.10;;
32321;SDS011;61553;48.994;8.940;2023-06-04T03:56:45;4.80;;;1.70;;
32321;SDS011;61553;48.994;8.940;2023-06-04T03:59:11;4.80;;;2.15;;
32321;SDS011;61553;48.994;8.940;2023-06-04T04:01:37;4.05;;;1.55;;
32321;SDS011;61553;48.994;8.940;2023-06-04T04:04:04;4.85;;;1.77;;
32321;SDS011;61553;48.994;8.940;2023-06-04T04:06:30;5.38;;;1.70;;
32321;SDS011;61553;48.994;8.940;2023-06-04T04:08:55;6.85;;;1.95;;
32321;SDS011;61553;48.994;8.940;2023-06-04T04:11:21;5.80;;;1.58;;
32321;SDS011;61553;48.994;8.940;2023-06-04T04:13:47;5.80;;;1.80;;
32321;SDS011;61553;48.994;8.940;2023-06-04T04:16:13;5.72;;;1.77;;
32321;SDS011;61553;48.994;8.940;2023-06-04T04:18:40;5.93;;;1.63;;
32321;SDS011;61553;48.994;8.940;2023-06-04T04:21:08;3.50;;;1.52;;
32321;SDS011;61553;48.994;8.940;2023-06-04T04:23:33;3.47;;;1.50;;
32321;SDS011;61553;48.994;8.940;2023-06-04T04:26:00;5.50;;;1.80;;
32321;SDS011;61553;48.994;8.940;2023-06-04T04:28:27;4.63;;;1.52;;
32321;SDS011;61553;48.994;8.940;2023-06-04T04:30:56;3.90;;;1.42;;
32321;SDS011;61553;48.994;8.940;2023-06-04T04:33:22;7.68;;;1.83;;
32321;SDS011;61553;48.994;8.940;2023-06-04T04:35:51;4.95;;;1.55;;
32321;SDS011;61553;48.994;8.940;2023-06-04T04:38:20;3.00;;;1.40;;
32321;SDS011;61553;48.994;8.940;2023-06-04T04:40:49;4.65;;;1.90;;
32321;SDS011;61553;48.994;8.940;2023-06-04T04:43:17;4.53;;;1.67;;
32321;SDS011;61553;48.994;8.940;2023-06-04T04:45:53;8.10;;;1.70;;
32321;SDS011;61553;48.994;8.940;2023-06-04T04:48:19;4.85;;;1.73;;
32321;SDS011;61553;48.994;8.940;2023-06-04T04:50:44;3.08;;;1.60;;
32321;SDS011;61553;48.994;8.940;2023-06-04T04:53:10;5.00;;;2.05;;
32321;SDS011;61553;48.994;8.940;2023-06-04T04:55:35;3.50;;;1.48;;
32321;SDS011;61553;48.994;8.940;2023-06-04T04:58:01;3.75;;;1.40;;
32321;SDS011;61553;48.994;8.940;2023-06-04T05:00:27;7.38;;;1.70;;
32321;SDS011;61553;48.994;8.940;2023-06-04T05:02:53;5.38;;;2.00;;
32321;SDS011;61553;48.994;8.940;2023-06-04T05:05:19;5.63;;;1.58;;
32321;SDS011;61553;48.994;8.940;2023-06-04T05:07:45;3.47;;;1.60;;
32321;SDS011;61553;48.994;8.940;2023-06-04T05:10:10;4.95;;;1.65;;
32321;SDS011;61553;48.994;8.940;2023-06-04T05:12:36;3.80;;;1.52;;
32321;SDS011;61553;48.994;8.940;2023-06-04T05:15:01;5.57;;;1.40;;
32321;SDS011;61553;48.994;8.940;2023-06-04T05:17:28;5.10;;;1.60;;
32321;SDS011;61553;48.994;8.940;2023-06-04T05:19:57;5.00;;;1.52;;
32321;SDS011;61553;48.994;8.940;2023-06-04T05:22:29;5.53;;;1.50;;
32321;SDS011;61553;48.994;8.940;2023-06-04T05:24:57;7.05;;;1.83;;
32321;SDS011;61553;48.994;8.940;2023-06-04T05:27:24;4.38;;;1.52;;
32321;SDS011;61553;48.994;8.940;2023-06-04T05:29:50;4.18;;;1.50;;
32321;SDS011;61553;48.994;8.940;2023-06-04T05:32:16;4.20;;;1.50;;
32321;SDS011;61553;48.994;8.940;2023-06-04T05:34:42;5.10;;;1.65;;
32321;SDS011;61553;48.994;8.940;2023-06-04T05:37:08;6.82;;;1.55;;
32321;SDS011;61553;48.994;8.940;2023-06-04T05:39:34;3.67;;;1.45;;
32321;SDS011;61553;48.994;8.940;2023-06-04T05:42:00;7.28;;;1.65;;
32321;SDS011;61553;48.994;8.940;2023-06-04T05:44:26;3.70;;;1.27;;
32321;SDS011;61553;48.994;8.940;2023-06-04T05:46:52;4.05;;;1.38;;
32321;SDS011;61553;48.994;8.940;2023-06-04T05:49:18;5.15;;;1.70;;
32321;SDS011;61553;48.994;8.940;2023-06-04T05:51:44;3.35;;;1.38;;
32321;SDS011;61553;48.994;8.940;2023-06-04T05:54:10;4.47;;;1.30;;
32321;SDS011;61553;48.994;8.940;2023-06-04T05:56:35;4.18;;;1.38;;
32321;SDS011;61553;48.994;8.940;2023-06-04T05:59:01;6.45;;;1.45;;
32321;SDS011;61553;48.994;8.940;2023-06-04T06:01:27;6.65;;;1.85;;
32321;SDS011;61553;48.994;8.940;2023-06-04T06:03:53;5.35;;;1.40;;
32321;SDS011;61553;48.994;8.940;2023-06-04T06:06:19;5.15;;;1.75;;
32321;SDS011;61553;48.994;8.940;2023-06-04T06:08:45;5.07;;;1.70;;
32321;SDS011;61553;48.994;8.940;2023-06-04T06:11:12;3.55;;;1.58;;
32321;SDS011;61553;48.994;8.940;2023-06-04T06:13:37;3.30;;;1.52;;
32321;SDS011;61553;48.994;8.940;2023-06-04T06:16:03;2.72;;;1.40;;
32321;SDS011;61553;48.994;8.940;2023-06-04T06:18:29;3.00;;;1.48;;
32321;SDS011;61553;48.994;8.940;2023-06-04T06:20:55;3.83;;;1.50;;
32321;SDS011;61553;48.994;8.940;2023-06-04T06:23:21;4.65;;;1.88;;
32321;SDS011;61553;48.994;8.940;2023-06-04T06:25:48;5.22;;;1.58;;
32321;SDS011;61553;48.994;8.940;2023-06-04T06:28:16;3.10;;;1.45;;
32321;SDS011;61553;48.994;8.940;2023-06-04T06:30:41;4.90;;;1.73;;
32321;SDS011;61553;48.994;8.940;2023-06-04T06:33:07;3.03;;;1.35;;
32321;SDS011;61553;48.994;8.940;2023-06-04T06:35:33;2.63;;;1.30;;
32321;SDS011;61553;48.994;8.940;2023-06-04T06:37:58;3.65;;;1.55;;
32321;SDS011;61553;48.994;8.940;2023-06-04T06:40:24;5.18;;;1.50;;
32321;SDS011;61553;48.994;8.940;2023-06-04T06:42:50;4.00;;;1.80;;
32321;SDS011;61553;48.994;8.940;2023-06-04T06:45:16;4.47;;;1.50;;
32321;SDS011;61553;48.994;8.940;2023-06-04T06:47:43;3.90;;;1.60;;
32321;SDS011;61553;48.994;8.940;2023-06-04T06:50:08;3.28;;;1.58;;
32321;SDS011;61553;48.994;8.940;2023-06-04T06:52:35;4.22;;;2.15;;
32321;SDS011;61553;48.994;8.940;2023-06-04T06:55:01;3.97;;;1.63;;
32321;SDS011;61553;48.994;8.940;2023-06-04T06:57:28;3.03;;;1.70;;
32321;SDS011;61553;48.994;8.940;2023-06-04T06:59:53;3.55;;;1.48;;
32321;SDS011;61553;48.994;8.940;2023-06-04T07:02:19;3.60;;;1.70;;
32321;SDS011;61553;48.994;8.940;2023-06-04T07:04:45;3.15;;;1.88;;
32321;SDS011;61553;48.994;8.940;2023-06-04T07:07:10;7.75;;;1.95;;
32321;SDS011;61553;48.994;8.940;2023-06-04T07:09:36;7.05;;;1.67;;
32321;SDS011;61553;48.994;8.940;2023-06-04T07:12:01;6.13;;;1.92;;
32321;SDS011;61553;48.994;8.940;2023-06-04T07:14:27;6.72;;;1.80;;
32321;SDS011;61553;48.994;8.940;2023-06-04T07:16:53;6.57;;;1.80;;
32321;SDS011;61553;48.994;8.940;2023-06-04T07:19:18;4.95;;;2.00;;
32321;SDS011;61553;48.994;8.940;2023-06-04T07:21:44;3.92;;;1.50;;
32321;SDS011;61553;48.994;8.940;2023-06-04T07:24:10;6.53;;;1.70;;
32321;SDS011;61553;48.994;8.940;2023-06-04T07:26:35;4.35;;;1.65;;
32321;SDS011;61553;48.994;8.940;2023-06-04T07:29:01;3.28;;;1.85;;
32321;SDS011;61553;48.994;8.940;2023-06-04T07:31:27;6.80;;;1.60;;
32321;SDS011;61553;48.994;8.940;2023-06-04T07:33:53;7.88;;;1.90;;
32321;SDS011;61553;48.994;8.940;2023-06-04T07:36:18;5.63;;;1.83;;
32321;SDS011;61553;48.994;8.940;2023-06-04T07:38:45;3.50;;;1.58;;
32321;SDS011;61553;48.994;8.940;2023-06-04T07:41:11;3.13;;;1.63;;
32321;SDS011;61553;48.994;8.940;2023-06-04T07:43:36;3.75;;;1.70;;
32321;SDS011;61553;48.994;8.940;2023-06-04T07:46:05;6.68;;;1.77;;
32321;SDS011;61553;48.994;8.940;2023-06-04T07:48:31;4.85;;;1.80;;
32321;SDS011;61553;48.994;8.940;2023-06-04T07:50:57;4.78;;;1.70;;
32321;SDS011;61553;48.994;8.940;2023-06-04T07:53:23;3.35;;;1.67;;
32321;SDS011;61553;48.994;8.940;2023-06-04T07:55:49;4.15;;;1.70;;
32321;SDS011;61553;48.994;8.940;2023-06-04T07:58:14;4.68;;;1.80;;
32321;SDS011;61553;48.994;8.940;2023-06-04T08:00:40;5.60;;;2.38;;
32321;SDS011;61553;48.994;8.940;2023-06-04T08:03:06;3.35;;;1.80;;
32321;SDS011;61553;48.994;8.940;2023-06-04T08:05:32;5.65;;;1.90;;
32321;SDS011;61553;48.994;8.940;2023-06-04T08:07:59;3.80;;;1.70;;
32321;SDS011;61553;48.994;8.940;2023-06-04T08:10:25;3.53;;;1.83;;
32321;SDS011;61553;48.994;8.940;2023-06-04T08:12:50;4.43;;;1.92;;
32321;SDS011;61553;48.994;8.940;2023-06-04T08:15:16;3.75;;;1.90;;
32321;SDS011;61553;48.994;8.940;2023-06-04T08:17:42;5.63;;;2.33;;
32321;SDS011;61553;48.994;8.940;2023-06-04T08:20:07;3.25;;;1.77;;
32321;SDS011;61553;48.994;8.940;2023-06-04T08:22:36;4.65;;;1.92;;
32321;SDS011;61553;48.994;8.940;2023-06-04T08:25:02;6.47;;;1.80;;
32321;SDS011;61553;48.994;8.940;2023-06-04T08:27:31;5.00;;;2.42;;
32321;SDS011;61553;48.994;8.940;2023-06-04T08:29:56;4.72;;;1.80;;
32321;SDS011;61553;48.994;8.940;2023-06-04T08:32:23;4.10;;;2.03;;
32321;SDS011;61553;48.994;8.940;2023-06-04T08:34:49;3.90;;;1.90;;
32321;SDS011;61553;48.994;8.940;2023-06-04T08:37:15;4.88;;;2.13;;
32321;SDS011;61553;48.994;8.940;2023-06-04T08:39:42;3.42;;;1.67;;
32321;SDS011;61553;48.994;8.940;2023-06-04T08:42:09;3.55;;;1.80;;
32321;SDS011;61553;48.994;8.940;2023-06-04T08:44:41;5.05;;;2.10;;
32321;SDS011;61553;48.994;8.940;2023-06-04T08:47:08;3.90;;;2.10;;
32321;SDS011;61553;48.994;8.940;2023-06-04T08:49:39;7.38;;;1.90;;
32321;SDS011;61553;48.994;8.940;2023-06-04T08:52:06;5.38;;;2.00;;
32321;SDS011;61553;48.994;8.940;2023-06-04T08:54:32;6.40;;;2.05;;
32321;SDS011;61553;48.994;8.940;2023-06-04T08:56:58;3.45;;;1.73;;
32321;SDS011;61553;48.994;8.940;2023-06-04T08:59:25;4.22;;;2.03;;
32321;SDS011;61553;48.994;8.940;2023-06-04T09:01:55;5.32;;;1.80;;
32321;SDS011;61553;48.994;8.940;2023-06-04T09:04:21;4.18;;;2.10;;
32321;SDS011;61553;48.994;8.940;2023-06-04T09:06:48;5.00;;;1.83;;
32321;SDS011;61553;48.994;8.940;2023-06-04T09:09:14;5.32;;;1.85;;
32321;SDS011;61553;48.994;8.940;2023-06-04T09:11:45;5.70;;;1.88;;
32321;SDS011;61553;48.994;8.940;2023-06-04T09:14:20;3.80;;;1.92;;
32321;SDS011;61553;48.994;8.940;2023-06-04T09:16:49;3.25;;;2.00;;
32321;SDS011;61553;48.994;8.940;2023-06-04T09:19:16;4.47;;;1.90;;
32321;SDS011;61553;48.994;8.940;2023-06-04T09:21:56;4.00;;;2.00;;
32321;SDS011;61553;48.994;8.940;2023-06-04T09:24:38;3.97;;;2.00;;
32321;SDS011;61553;48.994;8.940;2023-06-04T09:27:15;4.35;;;2.00;;
32321;SDS011;61553;48.994;8.940;2023-06-04T09:29:54;3.20;;;2.03;;
32321;SDS011;61553;48.994;8.940;2023-06-04T09:32:22;3.30;;;2.05;;
32321;SDS011;61553;48.994;8.940;2023-06-04T09:34:52;4.03;;;1.92;;
32321;SDS011;61553;48.994;8.940;2023-06-04T09:37:18;6.53;;;2.10;;
32321;SDS011;61553;48.994;8.940;2023-06-04T09:39:56;4.88;;;1.70;;
32321;SDS011;61553;48.994;8.940;2023-06-04T09:42:23;5.95;;;2.10;;
32321;SDS011;61553;48.994;8.940;2023-06-04T09:44:49;5.18;;;2.10;;
32321;SDS011;61553;48.994;8.940;2023-06-04T09:47:15;3.58;;;2.15;;
32321;SDS011;61553;48.994;8.940;2023-06-04T09:49:44;6.47;;;2.05;;
32321;SDS011;61553;48.994;8.940;2023-06-04T09:52:11;6.07;;;2.10;;
32321;SDS011;61553;48.994;8.940;2023-06-04T09:54:38;5.10;;;2.15;;
32321;SDS011;61553;48.994;8.940;2023-06-04T09:57:14;4.18;;;2.10;;
32321;SDS011;61553;48.994;8.940;2023-06-04T09:59:41;5.50;;;1.83;;
32321;SDS011;61553;48.994;8.940;2023-06-04T10:02:15;5.63;;;2.10;;
32321;SDS011;61553;48.994;8.940;2023-06-04T10:04:53;4.63;;;1.92;;
32321;SDS011;61553;48.994;8.940;2023-06-04T10:07:22;5.50;;;2.28;;
32321;SDS011;61553;48.994;8.940;2023-06-04T10:09:49;4.40;;;2.28;;
32321;SDS011;61553;48.994;8.940;2023-06-04T10:12:17;5.90;;;2.28;;
32321;SDS011;61553;48.994;8.940;2023-06-04T10:17:22;5.28;;;2.10;;
32321;SDS011;61553;48.994;8.940;2023-06-04T10:19:50;5.32;;;1.88;;
32321;SDS011;61553;48.994;8.940;2023-06-04T10:22:20;7.50;;;2.38;;
32321;SDS011;61553;48.994;8.940;2023-06-04T10:24:46;6.30;;;2.03;;
32321;SDS011;61553;48.994;8.940;2023-06-04T10:27:12;6.68;;;2.00;;
32321;SDS011;61553;48.994;8.940;2023-06-04T10:29:38;5.47;;;2.00;;
32321;SDS011;61553;48.994;8.940;2023-06-04T10:32:04;5.47;;;2.53;;
32321;SDS011;61553;48.994;8.940;2023-06-04T10:34:31;3.90;;;2.20;;
32321;SDS011;61553;48.994;8.940;2023-06-04T10:36:57;5.18;;;2.20;;
32321;SDS011;61553;48.994;8.940;2023-06-04T10:39:26;4.68;;;2.15;;
32321;SDS011;61553;48.994;8.940;2023-06-04T10:42:00;5.05;;;2.00;;
32321;SDS011;61553;48.994;8.940;2023-06-04T10:44:27;4.50;;;1.98;;
32321;SDS011;61553;48.994;8.940;2023-06-04T10:46:54;4.38;;;2.30;;
32321;SDS011;61553;48.994;8.940;2023-06-04T10:49:28;6.97;;;2.15;;
32321;SDS011;61553;48.994;8.940;2023-06-04T10:51:55;4.53;;;2.10;;
32321;SDS011;61553;48.994;8.940;2023-06-04T10:54:24;5.50;;;2.35;;
32321;SDS011;61553;48.994;8.940;2023-06-04T10:56:50;5.15;;;2.30;;
32321;SDS011;61553;48.994;8.940;2023-06-04T10:59:17;8.65;;;2.08;;
32321;SDS011;61553;48.994;8.940;2023-06-04T11:01:43;3.13;;;1.88;;
32321;SDS011;61553;48.994;8.940;2023-06-04T11:04:22;5.13;;;2.28;;
32321;SDS011;61553;48.994;8.940;2023-06-04T11:07:05;6.47;;;2.03;;
32321;SDS011;61553;48.994;8.940;2023-06-04T11:09:35;7.75;;;3.08;;
32321;SDS011;61553;48.994;8.940;2023-06-04T11:12:05;7.20;;;2.03;;
32321;SDS011;61553;48.994;8.940;2023-06-04T11:14:31;6.13;;;2.53;;
32321;SDS011;61553;48.994;8.940;2023-06-04T11:16:57;4.88;;;2.20;;
32321;SDS011;61553;48.994;8.940;2023-06-04T11:19:36;5.65;;;2.50;;
32321;SDS011;61553;48.994;8.940;2023-06-04T11:22:03;6.07;;;2.30;;
32321;SDS011;61553;48.994;8.940;2023-06-04T11:24:29;4.90;;;2.35;;
32321;SDS011;61553;48.994;8.940;2023-06-04T11:26:57;4.65;;;2.25;;
32321;SDS011;61553;48.994;8.940;2023-06-04T11:29:27;3.97;;;2.22;;
32321;SDS011;61553;48.994;8.940;2023-06-04T11:31:53;6.10;;;2.10;;
32321;SDS011;61553;48.994;8.940;2023-06-04T11:34:28;9.95;;;2.28;;
32321;SDS011;61553;48.994;8.940;2023-06-04T11:36:55;5.55;;;2.40;;
32321;SDS011;61553;48.994;8.940;2023-06-04T11:39:21;6.63;;;2.95;;
32321;SDS011;61553;48.994;8.940;2023-06-04T11:41:47;5.13;;;2.72;;
32321;SDS011;61553;48.994;8.940;2023-06-04T11:44:17;5.05;;;2.67;;
32321;SDS011;61553;48.994;8.940;2023-06-04T11:46:44;5.00;;;2.80;;
32321;SDS011;61553;48.994;8.940;2023-06-04T11:49:17;6.97;;;3.35;;
32321;SDS011;61553;48.994;8.940;2023-06-04T11:51:47;5.43;;;3.00;;
32321;SDS011;61553;48.994;8.940;2023-06-04T11:54:14;5.40;;;2.50;;
32321;SDS011;61553;48.994;8.940;2023-06-04T11:56:44;4.40;;;2.55;;
32321;SDS011;61553;48.994;8.940;2023-06-04T11:59:15;5.07;;;2.88;;
32321;SDS011;61553;48.994;8.940;2023-06-04T12:01:45;6.35;;;2.90;;
32321;SDS011;61553;48.994;8.940;2023-06-04T12:04:14;7.95;;;2.80;;
32321;SDS011;61553;48.994;8.940;2023-06-04T12:06:54;5.18;;;2.60;;
32321;SDS011;61553;48.994;8.940;2023-06-04T12:09:26;5.70;;;2.65;;
32321;SDS011;61553;48.994;8.940;2023-06-04T12:12:02;5.47;;;3.10;;
32321;SDS011;61553;48.994;8.940;2023-06-04T12:14:30;7.05;;;3.40;;
32321;SDS011;61553;48.994;8.940;2023-06-04T12:16:56;5.00;;;2.67;;
32321;SDS011;61553;48.994;8.940;2023-06-04T12:19:32;4.38;;;2.38;;
32321;SDS011;61553;48.994;8.940;2023-06-04T12:21:59;4.85;;;2.70;;
32321;SDS011;61553;48.994;8.940;2023-06-04T12:24:29;6.47;;;2.33;;
32321;SDS011;61553;48.994;8.940;2023-06-04T12:27:05;6.18;;;2.40;;
32321;SDS011;61553;48.994;8.940;2023-06-04T12:29:36;4.95;;;2.88;;
32321;SDS011;61553;48.994;8.940;2023-06-04T12:32:06;6.55;;;2.90;;
32321;SDS011;61553;48.994;8.940;2023-06-04T12:34:36;5.47;;;2.80;;
32321;SDS011;61553;48.994;8.940;2023-06-04T12:37:02;7.90;;;2.88;;
32321;SDS011;61553;48.994;8.940;2023-06-04T12:39:30;6.53;;;3.25;;
32321;SDS011;61553;48.994;8.940;2023-06-04T12:42:01;8.15;;;2.65;;
32321;SDS011;61553;48.994;8.940;2023-06-04T12:44:31;6.55;;;2.80;;
32321;SDS011;61553;48.994;8.940;2023-06-04T12:46:57;5.13;;;2.45;;
32321;SDS011;61553;48.994;8.940;2023-06-04T12:49:23;8.55;;;3.35;;
32321;SDS011;61553;48.994;8.940;2023-06-04T12:51:48;9.98;;;4.35;;
32321;SDS011;61553;48.994;8.940;2023-06-04T12:54:14;5.05;;;2.33;;
32321;SDS011;61553;48.994;8.940;2023-06-04T12:56:40;7.75;;;2.45;;
32321;SDS011;61553;48.994;8.940;2023-06-04T12:59:06;5.45;;;2.38;;
32321;SDS011;61553;48.994;8.940;2023-06-04T13:01:31;4.50;;;2.88;;
32321;SDS011;61553;48.994;8.940;2023-06-04T13:03:57;5.07;;;2.22;;
32321;SDS011;61553;48.994;8.940;2023-06-04T13:06:23;7.80;;;2.58;;
32321;SDS011;61553;48.994;8.940;2023-06-04T13:08:49;5.72;;;2.70;;
32321;SDS011;61553;48.994;8.940;2023-06-04T13:11:14;4.45;;;3.22;;
32321;SDS011;61553;48.994;8.940;2023-06-04T13:13:40;5.63;;;3.13;;
32321;SDS011;61553;48.994;8.940;2023-06-04T13:16:07;5.40;;;3.08;;
32321;SDS011;61553;48.994;8.940;2023-06-04T13:18:32;4.80;;;2.72;;
32321;SDS011;61553;48.994;8.940;2023-06-04T13:20:58;6.22;;;2.70;;
32321;SDS011;61553;48.994;8.940;2023-06-04T13:23:24;5.20;;;2.90;;
32321;SDS011;61553;48.994;8.940;2023-06-04T13:25:49;4.65;;;2.40;;
32321;SDS011;61553;48.994;8.940;2023-06-04T13:28:15;8.85;;;2.85;;
32321;SDS011;61553;48.994;8.940;2023-06-04T13:30:42;7.68;;;3.00;;
32321;SDS011;61553;48.994;8.940;2023-06-04T13:33:08;4.63;;;2.70;;
32321;SDS011;61553;48.994;8.940;2023-06-04T13:35:34;7.43;;;3.63;;
32321;SDS011;61553;48.994;8.940;2023-06-04T13:38:02;7.15;;;2.67;;
32321;SDS011;61553;48.994;8.940;2023-06-04T13:40:29;7.35;;;2.80;;
32321;SDS011;61553;48.994;8.940;2023-06-04T13:42:54;6.22;;;2.75;;
32321;SDS011;61553;48.994;8.940;2023-06-04T13:45:20;5.45;;;2.95;;
32321;SDS011;61553;48.994;8.940;2023-06-04T13:47:46;8.65;;;2.78;;
32321;SDS011;61553;48.994;8.940;2023-06-04T13:50:15;5.82;;;2.78;;
32321;SDS011;61553;48.994;8.940;2023-06-04T13:52:41;7.88;;;3.42;;
32321;SDS011;61553;48.994;8.940;2023-06-04T13:55:07;7.07;;;2.95;;
32321;SDS011;61553;48.994;8.940;2023-06-04T13:57:33;6.22;;;2.75;;
32321;SDS011;61553;48.994;8.940;2023-06-04T13:59:58;6.22;;;2.78;;
32321;SDS011;61553;48.994;8.940;2023-06-04T14:02:24;4.60;;;2.47;;
32321;SDS011;61553;48.994;8.940;2023-06-04T14:04:53;4.50;;;2.80;;
32321;SDS011;61553;48.994;8.940;2023-06-04T14:07:19;7.50;;;3.13;;
32321;SDS011;61553;48.994;8.940;2023-06-04T14:09:45;6.35;;;2.80;;
32321;SDS011;61553;48.994;8.940;2023-06-04T14:12:10;6.20;;;3.10;;
32321;SDS011;61553;48.994;8.940;2023-06-04T14:14:36;8.30;;;3.03;;
32321;SDS011;61553;48.994;8.940;2023-06-04T14:17:05;7.28;;;3.13;;
32321;SDS011;61553;48.994;8.940;2023-06-04T14:19:32;5.43;;;2.70;;
32321;SDS011;61553;48.994;8.940;2023-06-04T14:21:58;6.90;;;2.90;;
32321;SDS011;61553;48.994;8.940;2023-06-04T14:24:25;6.18;;;3.08;;
32321;SDS011;61553;48.994;8.940;2023-06-04T14:26:50;5.80;;;2.33;;
32321;SDS011;61553;48.994;8.940;2023-06-04T14:29:16;3.72;;;2.20;;
32321;SDS011;61553;48.994;8.940;2023-06-04T14:31:42;4.25;;;2.50;;
32321;SDS011;61553;48.994;8.940;2023-06-04T14:34:08;4.20;;;2.50;;
32321;SDS011;61553;48.994;8.940;2023-06-04T14:36:35;4.47;;;2.70;;
32321;SDS011;61553;48.994;8.940;2023-06-04T14:39:00;5.78;;;2.60;;
32321;SDS011;61553;48.994;8.940;2023-06-04T14:41:26;5.80;;;2.88;;
32321;SDS011;61553;48.994;8.940;2023-06-04T14:43:52;5.32;;;2.38;;
32321;SDS011;61553;48.994;8.940;2023-06-04T14:46:18;6.75;;;2.33;;
32321;SDS011;61553;48.994;8.940;2023-06-04T14:48:43;4.97;;;2.55;;
32321;SDS011;61553;48.994;8.940;2023-06-04T14:51:09;5.75;;;2.28;;
32321;SDS011;61553;48.994;8.940;2023-06-04T14:53:35;5.25;;;3.00;;